Time;durP1;ratioP1;P1;durP2;ratioP2;P2;SDS_P1;SDS_P2;PMS_P1;PMS_P2;Temp;Humidity;BMP_temperature;BMP_pressure;BME280_temperature;BME280_humidity;BME280_pressure;Samples;Min_cycle;Max_cycle;Signal;HPM_P1;HPM_P2
2023/05/28 00:00:08;;;;;;;14.77;4.38;;;10.40;99.90;;;;;;4969698;28;20417;-64
2023/05/28 00:02:34;;;;;;;19.15;3.70;;;10.40;99.90;;;;;;4980750;28;20062;-64
2023/05/28 00:05:01;;;;;;;16.40;4.03;;;10.40;99.90;;;;;;4985720;28;20047;-64
2023/05/28 00:07:28;;;;;;;17.50;4.03;;;10.30;99.90;;;;;;4978392;28;20047;-64
2023/05/28 00:09:55;;;;;;;14.23;4.35;;;10.40;99.90;;;;;;4976258;28;20489;-64
2023/05/28 00:12:21;;;;;;;21.05;4.97;;;10.40;99.90;;;;;;4989113;28;20050;-65
2023/05/28 00:14:47;;;;;;;17.58;3.90;;;10.40;99.90;;;;;;4988104;28;20034;-65
2023/05/28 00:17:15;;;;;;;12.27;3.75;;;10.40;99.90;;;;;;4982654;28;20450;-65
2023/05/28 00:19:41;;;;;;;11.27;3.50;;;10.50;99.90;;;;;;4986047;28;20034;-65
2023/05/28 00:22:07;;;;;;;19.52;3.95;;;10.60;99.90;;;;;;4979613;28;20042;-65
2023/05/28 00:24:34;;;;;;;17.60;4.20;;;10.50;99.90;;;;;;4990664;28;20046;-65
2023/05/28 00:27:01;;;;;;;21.20;4.15;;;10.50;99.90;;;;;;4977184;28;20112;-65
2023/05/28 00:29:27;;;;;;;21.30;4.20;;;10.60;99.90;;;;;;4988220;28;20046;-65
2023/05/28 00:31:56;;;;;;;21.15;3.90;;;10.60;99.90;;;;;;4983979;28;20452;-65
2023/05/28 00:34:23;;;;;;;12.55;4.18;;;10.70;99.90;;;;;;4988448;28;20042;-65
2023/05/28 00:36:49;;;;;;;20.55;5.00;;;10.70;99.90;;;;;;4988707;28;20085;-64
2023/05/28 00:39:15;;;;;;;18.23;4.25;;;10.70;99.90;;;;;;4988816;28;20475;-65
2023/05/28 00:41:41;;;;;;;13.70;3.95;;;10.80;99.90;;;;;;4976901;28;20042;-65
2023/05/28 00:44:08;;;;;;;16.30;4.72;;;10.80;99.90;;;;;;4988968;28;20390;-65
2023/05/28 00:46:35;;;;;;;13.10;3.53;;;10.80;99.90;;;;;;4988423;28;20054;-65
2023/05/28 00:49:02;;;;;;;17.65;3.65;;;10.80;99.90;;;;;;4960184;28;20051;-65
2023/05/28 00:51:29;;;;;;;12.77;4.32;;;10.80;99.90;;;;;;4981294;28;20085;-65
2023/05/28 00:53:55;;;;;;;16.00;3.90;;;10.90;99.90;;;;;;4972620;28;20058;-64
2023/05/28 00:56:22;;;;;;;12.52;3.38;;;10.90;99.90;;;;;;4988651;28;20069;-65
2023/05/28 00:58:49;;;;;;;22.20;4.90;;;10.90;99.90;;;;;;4986216;28;20210;-65
2023/05/28 01:01:15;;;;;;;15.05;4.03;;;10.90;99.90;;;;;;4985071;28;20039;-65
2023/05/28 01:03:41;;;;;;;23.17;4.30;;;11.00;99.90;;;;;;4974062;28;20043;-64
2023/05/28 01:06:11;;;;;;;16.05;4.57;;;10.90;99.90;;;;;;4986881;28;20046;-64
2023/05/28 01:08:40;;;;;;;;;;;10.90;99.90;;;;;;4988572;28;20054;-64
2023/05/28 01:11:09;;;;;;;18.88;3.63;;;10.80;99.90;;;;;;4985408;28;19932;-65
2023/05/28 01:13:36;;;;;;;18.45;4.80;;;10.80;99.90;;;;;;4987219;28;20104;-65
2023/05/28 01:16:02;;;;;;;21.25;4.88;;;10.80;99.90;;;;;;4986128;28;20106;-65
2023/05/28 01:18:29;;;;;;;21.10;4.10;;;10.80;99.90;;;;;;4988491;28;20086;-64
2023/05/28 01:20:55;;;;;;;15.65;4.15;;;10.70;99.90;;;;;;4986022;28;20046;-64
2023/05/28 01:23:23;;;;;;;16.70;3.92;;;10.70;99.90;;;;;;4987442;28;20043;-64
2023/05/28 01:25:53;;;;;;;20.33;4.50;;;10.70;99.90;;;;;;4987272;28;20408;-65
2023/05/28 01:28:21;;;;;;;16.77;4.10;;;10.80;99.90;;;;;;4961585;28;20089;-64
2023/05/28 01:30:46;;;;;;;19.30;4.85;;;10.70;99.90;;;;;;4986030;28;20496;-64
2023/05/28 01:33:12;;;;;;;21.73;5.10;;;10.70;99.90;;;;;;4983623;28;20081;-65
2023/05/28 01:35:42;;;;;;;21.98;4.93;;;10.70;99.90;;;;;;4986482;28;20086;-64
2023/05/28 01:38:11;;;;;;;14.23;4.20;;;10.80;99.90;;;;;;4985759;28;20038;-64
2023/05/28 01:40:40;;;;;;;16.88;3.90;;;10.80;99.90;;;;;;4985013;28;20515;-65
2023/05/28 01:43:07;;;;;;;22.70;4.38;;;10.80;99.90;;;;;;4995410;28;20058;-65
2023/05/28 01:45:33;;;;;;;10.50;3.90;;;10.90;99.90;;;;;;4968439;28;20647;-64
2023/05/28 01:48:00;;;;;;;13.95;4.00;;;10.90;99.90;;;;;;4986654;28;20104;-64
2023/05/28 01:50:26;;;;;;;19.23;4.45;;;10.90;99.90;;;;;;4987492;28;20455;-65
2023/05/28 01:52:52;;;;;;;14.88;3.53;;;11.00;99.90;;;;;;4969368;28;20061;-65
2023/05/28 01:55:19;;;;;;;16.48;4.07;;;11.00;99.90;;;;;;4986048;28;20054;-65
2023/05/28 01:57:44;;;;;;;16.38;4.47;;;11.00;99.90;;;;;;4987576;28;20532;-65
2023/05/28 02:00:14;;;;;;;22.33;3.95;;;11.00;99.90;;;;;;4986222;28;20424;-64
2023/05/28 02:02:41;;;;;;;22.55;4.55;;;11.00;99.90;;;;;;4985793;28;20169;-64
2023/05/28 02:05:07;;;;;;;22.67;4.55;;;11.10;99.90;;;;;;4986304;28;20038;-65
2023/05/28 02:07:33;;;;;;;20.05;4.22;;;11.10;99.90;;;;;;4987347;28;20505;-64
2023/05/28 02:09:59;;;;;;;14.02;4.18;;;11.20;99.90;;;;;;4986629;28;20039;-65
2023/05/28 02:12:25;;;;;;;15.52;4.10;;;11.20;99.90;;;;;;4985858;28;20081;-65
2023/05/28 02:14:52;;;;;;;17.65;4.43;;;11.20;99.90;;;;;;4986354;28;20447;-65
2023/05/28 02:17:19;;;;;;;16.88;4.38;;;11.10;99.90;;;;;;4986295;28;20197;-65
2023/05/28 02:19:45;;;;;;;17.30;4.10;;;11.10;99.90;;;;;;4971361;28;20114;-65
2023/05/28 02:22:11;;;;;;;18.17;3.88;;;11.10;99.90;;;;;;4961450;28;20046;-65
2023/05/28 02:24:40;;;;;;;14.90;3.83;;;11.10;99.90;;;;;;4983970;28;20053;-65
2023/05/28 02:27:09;;;;;;;16.77;4.03;;;11.10;99.90;;;;;;4976871;28;20053;-64
2023/05/28 02:29:35;;;;;;;17.77;4.38;;;11.10;99.90;;;;;;4984023;28;20360;-65
2023/05/28 02:32:02;;;;;;;18.15;4.28;;;11.10;99.90;;;;;;4975091;28;20584;-64
2023/05/28 02:34:28;;;;;;;17.00;3.92;;;11.10;99.90;;;;;;4981630;28;20046;-65
2023/05/28 02:36:55;;;;;;;13.20;3.95;;;11.10;99.90;;;;;;4977282;28;20511;-65
2023/05/28 02:39:22;;;;;;;15.80;4.55;;;11.10;99.90;;;;;;4979543;28;20046;-65
2023/05/28 02:41:48;;;;;;;18.23;4.13;;;11.10;99.90;;;;;;4984439;28;20057;-64
2023/05/28 02:44:14;;;;;;;12.55;3.42;;;11.10;99.90;;;;;;4984604;28;20046;-65
2023/05/28 02:46:40;;;;;;;20.83;3.95;;;11.10;99.90;;;;;;4986575;28;20042;-65
2023/05/28 02:49:06;;;;;;;13.32;3.40;;;11.10;99.90;;;;;;4979633;28;20057;-65
2023/05/28 02:51:32;;;;;;;14.82;3.72;;;11.10;99.90;;;;;;4981820;28;20039;-65
2023/05/28 02:53:58;;;;;;;20.20;4.90;;;11.20;99.90;;;;;;4986723;28;20152;-64
2023/05/28 02:56:24;;;;;;;12.52;3.67;;;11.20;99.90;;;;;;4985796;28;20504;-64
2023/05/28 02:58:51;;;;;;;13.32;3.88;;;11.20;99.90;;;;;;4986772;28;20129;-65
2023/05/28 03:01:17;;;;;;;21.30;4.63;;;11.30;99.90;;;;;;4974739;28;20058;-65
2023/05/28 03:03:42;;;;;;;20.63;3.95;;;11.30;99.90;;;;;;4984513;28;20039;-65
2023/05/28 03:06:08;;;;;;;19.80;3.97;;;11.20;99.90;;;;;;4984439;28;20401;-64
2023/05/28 03:08:35;;;;;;;18.55;4.00;;;11.20;99.90;;;;;;4986097;28;20045;-65
2023/05/28 03:11:00;;;;;;;14.48;4.10;;;11.20;99.90;;;;;;4961248;28;20128;-65
2023/05/28 03:13:26;;;;;;;16.10;3.75;;;11.20;99.90;;;;;;4985626;28;20054;-64
2023/05/28 03:15:52;;;;;;;19.92;4.70;;;11.10;99.90;;;;;;4986666;28;20082;-65
2023/05/28 03:18:18;;;;;;;17.70;4.50;;;11.10;99.90;;;;;;4985486;28;20077;-65
2023/05/28 03:20:43;;;;;;;14.27;3.92;;;11.10;99.90;;;;;;4984377;28;20074;-65
2023/05/28 03:23:09;;;;;;;21.85;4.35;;;11.10;99.90;;;;;;4956752;28;20129;-65
2023/05/28 03:25:35;;;;;;;22.60;4.85;;;11.10;99.90;;;;;;4985039;28;20057;-65
2023/05/28 03:28:01;;;;;;;17.10;3.45;;;11.10;99.90;;;;;;4985951;28;20038;-65
2023/05/28 03:30:27;;;;;;;15.02;3.58;;;11.00;99.90;;;;;;4985862;28;20380;-65
2023/05/28 03:32:52;;;;;;;22.25;4.00;;;11.00;99.90;;;;;;4968882;28;20481;-65
2023/05/28 03:35:18;;;;;;;12.30;3.85;;;11.00;99.90;;;;;;4972232;28;20049;-65
2023/05/28 03:37:46;;;;;;;12.93;3.72;;;11.00;99.90;;;;;;4986273;28;20092;-65
2023/05/28 03:40:12;;;;;;;15.13;4.32;;;11.00;99.90;;;;;;4958945;28;20049;-65
2023/05/28 03:42:39;;;;;;;19.25;3.88;;;11.00;99.90;;;;;;4985175;28;20065;-65
2023/05/28 03:45:06;;;;;;;14.27;3.90;;;10.90;99.90;;;;;;4985920;28;20121;-65
2023/05/28 03:47:32;;;;;;;14.65;3.80;;;10.90;99.90;;;;;;4985405;28;20121;-65
2023/05/28 03:49:59;;;;;;;18.90;4.72;;;11.00;99.90;;;;;;4987793;28;20050;-66
2023/05/28 03:52:25;;;;;;;13.23;4.25;;;11.00;99.90;;;;;;4988098;28;20041;-65
2023/05/28 03:54:51;;;;;;;10.15;3.65;;;10.90;99.90;;;;;;4987388;28;20058;-65
2023/05/28 03:57:17;;;;;;;12.70;3.80;;;10.90;99.90;;;;;;4974419;28;20053;-65
2023/05/28 03:59:43;;;;;;;19.75;4.47;;;10.90;99.90;;;;;;4989927;28;20051;-65
2023/05/28 04:02:08;;;;;;;12.52;3.42;;;10.90;99.90;;;;;;4981951;28;20507;-65
2023/05/28 04:04:34;;;;;;;14.90;4.88;;;11.00;99.90;;;;;;4989124;28;20049;-65
2023/05/28 04:07:00;;;;;;;12.48;3.85;;;11.10;99.90;;;;;;4989305;28;20046;-65
2023/05/28 04:09:27;;;;;;;11.02;3.88;;;11.10;99.90;;;;;;4988527;28;20089;-65
2023/05/28 04:11:53;;;;;;;14.75;4.00;;;11.10;99.90;;;;;;4972338;28;20046;-65
2023/05/28 04:14:20;;;;;;;12.13;3.95;;;11.20;99.90;;;;;;4987845;28;20046;-65
2023/05/28 04:16:48;;;;;;;13.18;4.32;;;11.20;99.90;;;;;;4989266;28;20536;-65
2023/05/28 04:19:15;;;;;;;15.40;3.95;;;11.30;99.90;;;;;;4988209;28;20100;-65
2023/05/28 04:21:41;;;;;;;12.82;4.57;;;11.30;99.90;;;;;;4971954;28;20108;-65
2023/05/28 04:24:07;;;;;;;14.68;3.92;;;11.40;99.90;;;;;;4988352;28;20038;-65
2023/05/28 04:26:32;;;;;;;16.70;4.28;;;11.40;99.90;;;;;;4970619;28;20048;-65
2023/05/28 04:28:59;;;;;;;25.70;4.35;;;11.40;99.90;;;;;;4988125;28;20050;-65
2023/05/28 04:31:29;;;;;;;18.17;4.10;;;11.40;99.90;;;;;;4977454;28;20061;-65
2023/05/28 04:33:55;;;;;;;;;;;11.50;99.90;;;;;;4989069;28;20101;-65
2023/05/28 04:36:20;;;;;;;10.52;3.95;;;11.50;99.90;;;;;;4973135;28;19930;-65
2023/05/28 04:38:46;;;;;;;14.48;3.78;;;11.60;99.90;;;;;;4989187;28;20054;-65
2023/05/28 04:41:15;;;;;;;14.55;4.10;;;11.60;99.90;;;;;;4970768;28;20073;-65
2023/05/28 04:43:58;;;;;;;13.50;4.40;;;11.60;99.90;;;;;;4971814;28;20496;-65
2023/05/28 04:46:25;;;;;;;12.82;4.22;;;11.70;99.90;;;;;;4988266;28;20093;-65
2023/05/28 04:48:51;;;;;;;16.33;3.75;;;11.60;99.90;;;;;;4983652;28;20057;-65
2023/05/28 04:51:18;;;;;;;10.48;3.35;;;11.80;99.90;;;;;;4997356;28;20050;-65
2023/05/28 04:53:44;;;;;;;17.33;3.88;;;11.80;99.90;;;;;;4987754;28;20062;-65
2023/05/28 04:56:10;;;;;;;21.27;4.60;;;11.90;99.90;;;;;;4987919;28;20061;-65
2023/05/28 04:58:36;;;;;;;16.20;4.00;;;11.90;99.90;;;;;;4973705;28;20050;-65
2023/05/28 05:01:02;;;;;;;13.55;3.97;;;11.90;99.90;;;;;;4981486;28;20554;-65
2023/05/28 05:03:30;;;;;;;13.73;4.25;;;12.00;99.90;;;;;;4968685;28;20090;-66
2023/05/28 05:05:56;;;;;;;16.40;4.10;;;12.10;99.90;;;;;;4968127;28;20050;-66
2023/05/28 05:08:21;;;;;;;14.00;4.05;;;12.10;99.90;;;;;;4969089;28;20043;-65
2023/05/28 05:10:47;;;;;;;11.23;4.00;;;12.00;99.90;;;;;;4983743;28;20042;-65
2023/05/28 05:13:13;;;;;;;17.02;4.32;;;11.90;99.90;;;;;;4988260;28;20046;-65
2023/05/28 05:15:39;;;;;;;14.50;4.68;;;11.90;99.90;;;;;;4977835;28;20053;-65
2023/05/28 05:18:04;;;;;;;21.40;4.22;;;11.90;99.90;;;;;;4988166;28;20121;-66
2023/05/28 05:20:30;;;;;;;17.48;4.13;;;11.90;99.90;;;;;;4986510;28;20131;-65
2023/05/28 05:22:56;;;;;;;17.00;4.00;;;11.80;99.90;;;;;;4973997;28;20076;-66
2023/05/28 05:25:22;;;;;;;20.98;4.25;;;11.90;99.90;;;;;;4987625;28;20050;-65
2023/05/28 05:27:52;;;;;;;13.93;4.20;;;11.90;99.90;;;;;;4984615;28;20048;-65
2023/05/28 05:30:18;;;;;;;8.75;3.72;;;11.90;99.90;;;;;;4988187;28;20109;-66
2023/05/28 05:32:50;;;;;;;16.33;3.60;;;12.00;99.90;;;;;;4969503;28;20082;-65
2023/05/28 05:35:16;;;;;;;17.67;3.67;;;12.00;99.90;;;;;;4974826;28;20058;-65
2023/05/28 05:37:42;;;;;;;13.63;3.70;;;12.10;99.90;;;;;;4974408;28;20142;-65
2023/05/28 05:40:09;;;;;;;14.95;3.63;;;12.10;99.90;;;;;;5018142;28;20133;-66
2023/05/28 05:42:35;;;;;;;18.83;4.25;;;12.20;99.90;;;;;;4987711;28;20138;-65
2023/05/28 05:45:01;;;;;;;17.30;4.40;;;12.30;99.90;;;;;;4986955;28;20042;-65
2023/05/28 05:47:26;;;;;;;17.90;4.78;;;12.30;99.90;;;;;;4980244;28;20386;-65
2023/05/28 05:49:52;;;;;;;10.18;3.35;;;12.40;99.90;;;;;;4998101;28;20101;-64
2023/05/28 05:52:18;;;;;;;15.73;3.72;;;12.50;99.90;;;;;;4986199;28;20121;-65
2023/05/28 05:54:43;;;;;;;20.20;4.45;;;12.50;99.90;;;;;;4984871;28;20050;-66
2023/05/28 05:57:09;;;;;;;12.50;3.72;;;12.60;99.90;;;;;;4986438;28;20504;-66
2023/05/28 05:59:35;;;;;;;18.35;4.45;;;12.60;99.90;;;;;;4971401;28;20078;-65
2023/05/28 06:02:01;;;;;;;15.73;4.15;;;12.70;99.90;;;;;;4973475;28;20038;-66
2023/05/28 06:04:31;;;;;;;12.68;3.95;;;12.70;99.90;;;;;;4987598;28;20038;-66
2023/05/28 06:06:57;;;;;;;16.90;4.43;;;12.70;99.90;;;;;;4986531;28;20050;-66
2023/05/28 06:09:23;;;;;;;12.13;4.03;;;12.70;99.90;;;;;;4985217;28;20527;-66
2023/05/28 06:11:49;;;;;;;17.25;3.75;;;12.80;99.90;;;;;;4985205;28;20054;-65
2023/05/28 06:14:15;;;;;;;15.57;4.53;;;12.80;99.90;;;;;;4984531;28;20485;-65
2023/05/28 06:16:41;;;;;;;21.27;4.50;;;12.80;99.90;;;;;;4986821;28;20408;-65
2023/05/28 06:19:07;;;;;;;28.33;4.80;;;12.90;99.90;;;;;;4986042;28;20046;-65
2023/05/28 06:21:33;;;;;;;9.55;4.10;;;12.90;99.90;;;;;;4978931;28;20174;-65
2023/05/28 06:23:59;;;;;;;18.27;4.63;;;13.00;99.90;;;;;;4979348;28;20140;-64
2023/05/28 06:26:24;;;;;;;11.38;4.15;;;13.00;99.90;;;;;;4976363;28;20575;-64
2023/05/28 06:28:50;;;;;;;16.42;4.68;;;13.10;99.90;;;;;;4976819;28;20053;-65
2023/05/28 06:31:16;;;;;;;14.30;4.55;;;13.20;99.90;;;;;;4985521;28;20177;-64
2023/05/28 06:33:42;;;;;;;16.75;4.45;;;13.40;99.90;;;;;;4977425;28;20178;-65
2023/05/28 06:36:08;;;;;;;22.05;4.82;;;13.40;99.90;;;;;;4981440;28;20053;-65
2023/05/28 06:38:33;;;;;;;17.30;4.18;;;13.30;99.90;;;;;;4981653;28;20053;-64
2023/05/28 06:41:00;;;;;;;16.35;4.38;;;13.40;99.90;;;;;;4973120;28;20050;-65
2023/05/28 06:43:25;;;;;;;19.00;4.78;;;13.30;99.90;;;;;;4968545;28;20086;-64
2023/05/28 06:45:51;;;;;;;14.40;4.22;;;13.40;99.90;;;;;;4969613;28;20109;-65
2023/05/28 06:48:17;;;;;;;13.30;4.63;;;13.40;99.90;;;;;;4976936;28;20039;-65
2023/05/28 06:50:43;;;;;;;8.48;3.55;;;13.40;99.90;;;;;;4971384;28;20046;-65
2023/05/28 06:53:09;;;;;;;11.77;3.80;;;13.40;99.90;;;;;;4966840;28;20047;-65
2023/05/28 06:55:34;;;;;;;10.50;4.03;;;13.40;99.90;;;;;;4966091;28;20066;-66
2023/05/28 06:58:00;;;;;;;13.23;3.60;;;13.40;99.90;;;;;;4965568;28;20165;-66
2023/05/28 07:00:26;;;;;;;10.80;3.90;;;13.50;99.90;;;;;;4969715;28;20041;-65
2023/05/28 07:02:51;;;;;;;11.15;3.40;;;13.50;99.90;;;;;;4967376;28;20043;-66
2023/05/28 07:05:18;;;;;;;13.07;3.80;;;13.60;99.90;;;;;;4967287;28;20043;-65
2023/05/28 07:07:43;;;;;;;15.20;4.10;;;13.70;99.90;;;;;;4970009;28;20455;-65
2023/05/28 07:10:09;;;;;;;21.42;4.57;;;13.80;99.90;;;;;;4980544;28;20546;-65
2023/05/28 07:12:35;;;;;;;10.52;3.22;;;13.90;99.90;;;;;;4978924;28;20480;-66
2023/05/28 07:15:03;;;;;;;8.43;2.90;;;14.00;94.20;;;;;;4966583;28;20132;-66
2023/05/28 07:17:29;;;;;;;8.88;3.17;;;14.00;77.60;;;;;;4970674;28;20488;-65
2023/05/28 07:19:55;;;;;;;10.02;2.90;;;14.10;74.90;;;;;;4977898;28;20043;-65
2023/05/28 07:22:21;;;;;;;5.78;2.67;;;14.30;76.30;;;;;;4980215;28;20042;-64
2023/05/28 07:24:46;;;;;;;6.75;2.92;;;14.30;73.20;;;;;;4977378;28;20085;-65
2023/05/28 07:27:12;;;;;;;11.20;3.47;;;14.50;67.90;;;;;;4979703;28;20049;-65
2023/05/28 07:29:39;;;;;;;9.52;3.25;;;14.50;67.40;;;;;;4968794;28;20086;-65
2023/05/28 07:32:05;;;;;;;12.45;3.42;;;14.60;75.20;;;;;;4975037;28;20053;-65
2023/05/28 07:34:31;;;;;;;8.02;3.17;;;14.70;74.90;;;;;;4971340;28;20047;-65
2023/05/28 07:36:57;;;;;;;8.25;3.03;;;14.90;73.10;;;;;;4969643;28;20074;-65
2023/05/28 07:39:23;;;;;;;5.68;2.60;;;15.10;52.60;;;;;;4970856;28;20089;-66
2023/05/28 07:41:49;;;;;;;5.85;3.25;;;15.20;14.30;;;;;;4970920;28;20499;-65
2023/05/28 07:44:15;;;;;;;9.93;2.50;;;15.40;6.00;;;;;;4969865;28;20043;-65
2023/05/28 07:46:41;;;;;;;5.85;2.80;;;15.60;1.00;;;;;;4967900;28;20035;-65
2023/05/28 07:49:07;;;;;;;4.95;2.72;;;15.80;1.00;;;;;;4981386;28;20239;-65
2023/05/28 07:51:33;;;;;;;8.30;3.72;;;15.90;1.00;;;;;;4970130;28;20039;-66
2023/05/28 07:53:58;;;;;;;4.90;2.67;;;16.00;1.00;;;;;;4969509;28;20051;-65
2023/05/28 07:56:24;;;;;;;5.20;2.97;;;16.20;1.00;;;;;;4970617;28;20054;-65
2023/05/28 07:58:51;;;;;;;7.93;2.42;;;16.40;1.00;;;;;;4967621;28;20097;-65
2023/05/28 08:01:17;;;;;;;4.32;2.40;;;16.50;1.00;;;;;;4968748;28;20075;-66
2023/05/28 08:03:43;;;;;;;5.60;2.72;;;16.90;1.00;;;;;;4968987;28;20035;-66
2023/05/28 08:06:09;;;;;;;7.90;2.85;;;17.00;1.00;;;;;;4966158;28;20082;-65
2023/05/28 08:08:35;;;;;;;3.10;2.58;;;17.00;1.00;;;;;;4984538;28;20042;-65
2023/05/28 08:11:00;;;;;;;7.15;3.25;;;17.30;1.00;;;;;;4987068;28;20396;-65
2023/05/28 08:13:26;;;;;;;9.02;4.43;;;17.40;1.00;;;;;;4984015;28;20053;-65
2023/05/28 08:15:52;;;;;;;4.68;3.00;;;17.40;1.00;;;;;;4983066;28;20074;-66
2023/05/28 08:18:18;;;;;;;6.78;2.83;;;17.40;1.00;;;;;;4981240;28;20042;-65
2023/05/28 08:20:44;;;;;;;5.57;2.80;;;17.40;1.00;;;;;;4962359;28;20081;-67
2023/05/28 08:23:10;;;;;;;3.60;2.53;;;17.50;1.00;;;;;;4980838;28;20047;-66
2023/05/28 08:25:35;;;;;;;3.75;2.83;;;17.70;1.00;;;;;;4982208;28;20042;-66
2023/05/28 08:28:01;;;;;;;3.33;2.38;;;17.80;1.00;;;;;;4984872;28;20644;-66
2023/05/28 08:30:27;;;;;;;10.13;3.20;;;17.70;1.00;;;;;;4999091;28;20044;-66
2023/05/28 08:32:53;;;;;;;6.72;3.13;;;17.60;1.00;;;;;;4979103;28;20034;-66
2023/05/28 08:35:19;;;;;;;8.25;3.55;;;17.50;1.00;;;;;;4984234;28;20054;-66
2023/05/28 08:37:44;;;;;;;8.75;3.40;;;17.60;1.00;;;;;;4982926;28;20455;-66
2023/05/28 08:40:13;;;;;;;7.20;3.40;;;17.80;1.00;;;;;;4997688;28;20070;-66
2023/05/28 08:42:39;;;;;;;8.20;2.75;;;17.90;1.00;;;;;;4976541;28;20053;-66
2023/05/28 08:45:06;;;;;;;9.52;3.38;;;18.10;1.00;;;;;;4970186;28;20030;-66
2023/05/28 08:47:33;;;;;;;7.25;3.30;;;18.40;1.00;;;;;;4969174;28;20082;-66
2023/05/28 08:50:04;;;;;;;8.10;3.75;;;18.40;1.00;;;;;;4975004;28;20082;-66
2023/05/28 08:52:33;;;;;;;7.50;3.92;;;18.30;1.00;;;;;;4975772;28;20068;-66
2023/05/28 08:55:00;;;;;;;13.93;3.15;;;18.20;1.00;;;;;;4981766;28;20058;-66
2023/05/28 08:57:29;;;;;;;4.65;3.38;;;18.30;1.00;;;;;;4969777;28;20053;-66
2023/05/28 08:59:55;;;;;;;7.43;3.75;;;18.40;1.00;;;;;;4967271;28;20046;-65
2023/05/28 09:02:23;;;;;;;6.55;3.45;;;18.50;1.00;;;;;;4969695;28;20053;-65
2023/05/28 09:04:50;;;;;;;7.60;4.20;;;18.50;1.00;;;;;;4982913;28;20401;-65
2023/05/28 09:07:16;;;;;;;6.43;3.38;;;18.50;1.00;;;;;;4981884;28;20081;-65
2023/05/28 09:09:42;;;;;;;7.32;3.70;;;18.50;1.00;;;;;;4981656;28;20047;-65
2023/05/28 09:12:12;;;;;;;8.15;4.25;;;18.60;1.00;;;;;;4964687;28;20054;-66
2023/05/28 09:14:42;;;;;;;7.60;4.28;;;18.80;1.00;;;;;;4977909;28;20050;-65
2023/05/28 09:17:09;;;;;;;4.57;3.97;;;18.90;1.00;;;;;;4981416;28;20808;-65
2023/05/28 09:19:35;;;;;;;4.65;4.00;;;19.10;1.00;;;;;;4979797;28;20039;-65
2023/05/28 09:22:03;;;;;;;7.82;4.03;;;19.40;1.00;;;;;;4978642;28;20046;-65
2023/05/28 09:24:32;;;;;;;7.40;3.75;;;19.70;1.00;;;;;;4980138;28;20058;-65
2023/05/28 09:26:58;;;;;;;8.52;4.22;;;19.90;1.00;;;;;;4979900;28;20046;-65
2023/05/28 09:29:25;;;;;;;6.45;4.38;;;20.00;1.00;;;;;;4976553;28;20100;-66
2023/05/28 09:31:59;;;;;;;12.60;4.25;;;19.80;1.00;;;;;;4978930;28;20046;-65
2023/05/28 09:34:30;;;;;;;5.60;4.30;;;19.60;1.00;;;;;;4949571;28;20042;-65
2023/05/28 09:37:04;;;;;;;7.93;4.63;;;19.40;1.00;;;;;;4967583;28;20043;-65
2023/05/28 09:39:31;;;;;;;10.40;4.78;;;19.40;1.00;;;;;;4969537;28;20201;-64
2023/05/28 09:42:12;;;;;;;8.85;5.03;;;19.40;1.00;;;;;;4969550;28;20042;-64
2023/05/28 09:44:42;;;;;;;7.50;4.82;;;19.70;1.00;;;;;;4976035;28;20054;-64
2023/05/28 09:47:21;;;;;;;7.47;5.00;;;19.40;1.00;;;;;;4973691;28;20125;-65
2023/05/28 09:49:47;;;;;;;7.50;4.70;;;19.20;1.00;;;;;;4970172;28;20054;-65
2023/05/28 09:52:21;;;;;;;8.13;4.75;;;19.20;1.00;;;;;;4968302;28;20504;-64
2023/05/28 09:54:59;;;;;;;10.10;5.97;;;19.20;1.00;;;;;;4955888;28;20073;-65
2023/05/28 09:57:33;;;;;;;9.40;5.95;;;19.20;1.00;;;;;;4967755;28;20519;-65
2023/05/28 10:00:13;;;;;;;7.25;5.05;;;19.10;1.00;;;;;;4974396;28;20042;-65
2023/05/28 10:02:49;;;;;;;8.48;5.20;;;19.00;1.00;;;;;;4969746;28;20725;-66
2023/05/28 10:05:18;;;;;;;8.60;5.20;;;19.10;1.00;;;;;;4974347;28;20038;-65
2023/05/28 10:07:46;;;;;;;7.97;4.87;;;19.10;1.00;;;;;;4967207;28;20051;-64
2023/05/28 10:10:13;;;;;;;9.55;5.55;;;19.10;1.00;;;;;;4971870;28;20059;-64
2023/05/28 10:12:39;;;;;;;8.77;5.15;;;19.20;1.00;;;;;;4968764;28;20045;-65
2023/05/28 10:15:07;;;;;;;9.18;4.85;;;19.20;1.00;;;;;;4983935;28;20054;-65
2023/05/28 10:17:34;;;;;;;7.80;4.68;;;19.20;1.00;;;;;;4965870;28;20038;-65
2023/05/28 10:20:00;;;;;;;7.03;4.63;;;19.20;1.00;;;;;;4966161;28;20397;-65
2023/05/28 10:22:28;;;;;;;5.57;3.92;;;19.20;1.00;;;;;;4966516;28;20404;-65
2023/05/28 10:24:54;;;;;;;5.50;3.97;;;19.20;1.00;;;;;;4967068;28;20536;-64
2023/05/28 10:27:28;;;;;;;11.68;4.28;;;19.20;1.00;;;;;;4966285;28;20039;-65
2023/05/28 10:29:54;;;;;;;8.85;3.80;;;19.20;1.00;;;;;;4965477;28;20046;-65
2023/05/28 10:32:20;;;;;;;6.88;3.20;;;19.10;1.00;;;;;;4967055;28;20324;-66
2023/05/28 10:34:45;;;;;;;6.40;3.40;;;19.10;1.00;;;;;;4965348;28;20045;-66
2023/05/28 10:37:13;;;;;;;8.35;3.78;;;19.10;1.00;;;;;;4965039;28;20057;-65
2023/05/28 10:39:45;;;;;;;5.05;3.28;;;19.10;1.00;;;;;;4998971;28;20066;-65
2023/05/28 10:42:18;;;;;;;9.50;3.40;;;19.20;1.00;;;;;;4977267;28;20417;-65
2023/05/28 10:45:14;;;;;;;6.78;2.75;;;19.20;1.00;;;;;;4980844;28;20048;-65
2023/05/28 10:47:51;;;;;;;6.35;2.53;;;19.30;1.00;;;;;;4964310;28;20058;-65
2023/05/28 10:50:18;;;;;;;6.53;2.53;;;19.30;1.00;;;;;;4971292;28;20060;-65
2023/05/28 10:53:07;;;;;;;6.05;2.55;;;19.20;1.00;;;;;;4987443;28;20039;-66
2023/05/28 10:55:52;;;;;;;7.45;2.53;;;19.10;1.00;;;;;;4960341;28;20050;-65
2023/05/28 10:58:35;;;;;;;9.23;2.50;;;19.20;1.00;;;;;;4952339;28;20503;-65
2023/05/28 11:01:19;;;;;;;8.60;2.25;;;19.30;1.00;;;;;;4968503;28;20131;-65
2023/05/28 11:03:53;;;;;;;9.65;2.88;;;19.20;1.00;;;;;;4984810;28;20050;-65
2023/05/28 11:06:19;;;;;;;8.07;3.05;;;19.20;1.00;;;;;;4966560;28;20043;-65
2023/05/28 11:08:48;;;;;;;5.10;2.33;;;19.10;1.00;;;;;;4970554;28;20087;-65
2023/05/28 11:11:15;;;;;;;6.43;2.42;;;19.10;1.00;;;;;;4965618;28;20489;-65
2023/05/28 11:13:45;;;;;;;6.75;2.47;;;19.10;1.00;;;;;;4973312;28;20047;-65
2023/05/28 11:16:12;;;;;;;4.90;2.30;;;19.20;1.00;;;;;;4971370;28;20054;-65
2023/05/28 11:18:38;;;;;;;8.60;2.97;;;19.30;1.00;;;;;;4983866;28;20409;-65
2023/05/28 11:21:09;;;;;;;5.90;2.60;;;19.20;1.00;;;;;;4979274;28;20046;-65
2023/05/28 11:23:39;;;;;;;6.63;2.70;;;19.20;1.00;;;;;;4949864;28;20152;-64
2023/05/28 11:26:20;;;;;;;7.50;2.53;;;19.20;1.00;;;;;;4967997;28;20077;-65
2023/05/28 11:28:49;;;;;;;8.20;3.08;;;19.20;1.00;;;;;;4965417;28;20051;-65
2023/05/28 11:31:15;;;;;;;12.82;2.60;;;19.20;1.00;;;;;;4992479;28;20035;-65
2023/05/28 11:33:41;;;;;;;10.18;2.67;;;19.30;1.00;;;;;;4970439;28;20133;-65
2023/05/28 11:36:06;;;;;;;5.82;2.70;;;19.30;1.00;;;;;;4975891;28;20121;-65
2023/05/28 11:38:33;;;;;;;8.98;3.42;;;19.30;1.00;;;;;;4977335;28;20097;-66
2023/05/28 11:41:00;;;;;;;9.70;3.58;;;19.30;1.00;;;;;;4973730;28;20081;-65
2023/05/28 11:43:26;;;;;;;8.25;2.65;;;19.30;1.00;;;;;;4973856;28;20042;-65
2023/05/28 11:46:01;;;;;;;9.55;3.38;;;19.20;1.00;;;;;;4982244;28;20177;-65
2023/05/28 11:48:27;;;;;;;7.82;2.85;;;19.00;1.00;;;;;;4970583;28;20574;-65
2023/05/28 11:51:00;;;;;;;7.22;3.03;;;19.10;1.00;;;;;;4964586;28;20047;-65
2023/05/28 11:53:43;;;;;;;6.35;2.60;;;19.10;1.00;;;;;;4972410;28;20651;-64
2023/05/28 11:56:10;;;;;;;9.20;2.65;;;19.10;1.00;;;;;;4957059;28;20057;-65
2023/05/28 11:58:43;;;;;;;7.60;2.60;;;19.10;1.00;;;;;;4966167;28;20074;-65
2023/05/28 12:01:14;;;;;;;10.18;3.35;;;19.20;1.00;;;;;;4964926;28;20065;-66
2023/05/28 12:03:40;;;;;;;12.20;2.80;;;19.20;1.00;;;;;;4950705;28;20047;-66
2023/05/28 12:06:06;;;;;;;9.93;3.85;;;19.20;5.80;;;;;;4963959;28;20073;-65
2023/05/28 12:08:32;;;;;;;12.25;2.58;;;19.30;10.10;;;;;;4972052;28;20085;-65
2023/05/28 12:11:02;;;;;;;8.95;3.15;;;19.20;7.90;;;;;;4983590;28;20088;-65
2023/05/28 12:13:34;;;;;;;10.45;3.25;;;19.20;20.50;;;;;;4986314;28;20125;-66
2023/05/28 12:16:11;;;;;;;13.90;3.33;;;19.00;1.00;;;;;;4982625;28;20541;-65
2023/05/28 12:18:41;;;;;;;9.05;2.80;;;18.90;11.20;;;;;;4982964;28;20054;-65
2023/05/28 12:21:12;;;;;;;9.00;2.47;;;18.90;21.50;;;;;;4967579;28;20050;-65
2023/05/28 12:23:38;;;;;;;12.65;3.00;;;19.00;13.80;;;;;;4954658;28;20050;-65
2023/05/28 12:26:10;;;;;;;6.63;2.72;;;18.90;18.10;;;;;;4982521;28;20038;-65
2023/05/28 12:28:39;;;;;;;12.88;2.83;;;19.10;23.00;;;;;;4985303;28;20038;-66
2023/05/28 12:31:05;;;;;;;8.30;3.33;;;19.20;18.70;;;;;;4970201;28;20077;-66
2023/05/28 12:33:31;;;;;;;10.18;2.65;;;19.10;18.10;;;;;;4979217;28;20061;-66
2023/05/28 12:35:59;;;;;;;12.95;3.70;;;19.20;23.00;;;;;;4972557;28;20053;-65
2023/05/28 12:38:26;;;;;;;8.00;2.60;;;19.10;15.70;;;;;;4972235;28;20049;-66
2023/05/28 12:40:52;;;;;;;8.25;2.78;;;18.80;16.80;;;;;;4972497;28;20047;-65
2023/05/28 12:43:18;;;;;;;11.43;3.17;;;18.90;23.50;;;;;;4970136;28;20061;-65
2023/05/28 12:45:43;;;;;;;11.57;3.25;;;19.00;21.10;;;;;;4969245;28;20409;-65